TimeEDT,TemperatureF,Dew PointF,Humidity,Sea Level PressureIn,VisibilityMPH,Wind Direction,Wind SpeedMPH,Gust SpeedMPH,PrecipitationIn,Events,Conditions,WindDirDegrees,DateUTC
12:52 AM,39.0,35.1,86,30.26,10.0,Calm,Calm,-,N/A,,Clear,0,2012-10-25 04:52:00
1:52 AM,37.9,34.0,86,30.27,10.0,Calm,Calm,-,N/A,,Scattered Clouds,0,2012-10-25 05:52:00
2:52 AM,39.9,36.0,86,30.27,10.0,Calm,Calm,-,N/A,,Overcast,0,2012-10-25 06:52:00
3:52 AM,42.1,37.0,82,30.27,10.0,Calm,Calm,-,N/A,,Overcast,0,2012-10-25 07:52:00
4:52 AM,44.1,37.9,79,30.27,10.0,Calm,Calm,-,N/A,,Overcast,0,2012-10-25 08:52:00
5:52 AM,44.1,39.0,82,30.27,10.0,Calm,Calm,-,N/A,,Overcast,0,2012-10-25 09:52:00
6:52 AM,45.0,39.0,80,30.29,10.0,Calm,Calm,-,N/A,,Overcast,0,2012-10-25 10:52:00
9:52 AM,54.0,36.0,51,30.32,10.0,Calm,Calm,-,N/A,,Clear,0,2012-10-25 13:52:00
10:52 AM,59.0,33.1,38,30.32,10.0,Calm,Calm,-,N/A,,Clear,0,2012-10-25 14:52:00
11:52 AM,61.0,30.0,31,30.32,10.0,Calm,Calm,-,N/A,,Overcast,0,2012-10-25 15:52:00
12:52 PM,61.0,34.0,36,30.30,10.0,SSW,6.9,-,N/A,,Overcast,200,2012-10-25 16:52:00
1:52 PM,60.1,36.0,41,30.30,10.0,SW,5.8,-,N/A,,Overcast,230,2012-10-25 17:52:00
2:12 PM,60.8,35.6,39,30.26,10.0,SW,6.9,-,N/A,,Overcast,220,2012-10-25 18:12:00
2:52 PM,60.1,35.1,39,30.28,10.0,SSW,5.8,-,N/A,,Overcast,200,2012-10-25 18:52:00
4:52 PM,59.0,37.0,44,30.28,10.0,SSW,3.5,-,N/A,,Overcast,200,2012-10-25 20:52:00
5:52 PM,57.9,41.0,53,30.29,10.0,Calm,Calm,-,N/A,,Overcast,0,2012-10-25 21:52:00
6:52 PM,55.9,43.0,62,30.29,10.0,Calm,Calm,-,N/A,,Overcast,0,2012-10-25 22:52:00
7:48 PM,53.6,42.8,67,30.27,10.0,Calm,Calm,-,N/A,,Scattered Clouds,0,2012-10-25 23:48:00
7:52 PM,53.1,42.1,66,30.30,10.0,Calm,Calm,-,N/A,,Partly Cloudy,0,2012-10-25 23:52:00
8:20 PM,51.8,42.8,71,30.27,10.0,Calm,Calm,-,N/A,,Mostly Cloudy,0,2012-10-26 00:20:00
9:22 PM,48.2,41.0,76,30.26,10.0,Calm,Calm,-,N/A,,Scattered Clouds,0,2012-10-26 01:22:00
9:52 PM,46.9,41.0,80,30.29,10.0,Calm,Calm,-,N/A,,Clear,0,2012-10-26 01:52:00
10:52 PM,46.0,41.0,83,30.29,10.0,Calm,Calm,-,N/A,,Overcast,0,2012-10-26 02:52:00
11:52 PM,48.0,42.1,80,30.29,10.0,Calm,Calm,-,N/A,,Overcast,0,2012-10-26 03:52:00